createdAt,value
2023-04-06T00:00:53.632Z,4.80
2023-04-06T00:03:20.559Z,4.45
2023-04-06T00:05:48.794Z,4.95
2023-04-06T00:08:16.238Z,4.72
2023-04-06T00:10:43.402Z,4.82
2023-04-06T00:13:10.382Z,4.40
2023-04-06T00:15:37.231Z,4.65
2023-04-06T00:18:04.444Z,4.40
2023-04-06T00:20:31.765Z,4.95
2023-04-06T00:22:58.548Z,5.20
2023-04-06T00:25:25.360Z,4.65
2023-04-06T00:27:52.095Z,4.22
2023-04-06T00:30:19.355Z,5.10
2023-04-06T00:32:46.184Z,3.90
2023-04-06T00:35:13.246Z,4.97
2023-04-06T00:37:40.233Z,5.00
2023-04-06T00:40:07.929Z,4.63
2023-04-06T00:42:34.695Z,4.25
2023-04-06T00:45:02.835Z,4.78
2023-04-06T00:47:29.897Z,4.38
2023-04-06T00:49:57.909Z,5.25
2023-04-06T00:52:27.172Z,5.47
2023-04-06T00:54:54.894Z,4.63
2023-04-06T00:57:23.133Z,4.25
2023-04-06T00:59:55.542Z,5.00
2023-04-06T01:02:22.562Z,4.78
2023-04-06T01:04:54.872Z,4.90
2023-04-06T01:07:28.330Z,4.43
2023-04-06T01:10:10.497Z,4.85
2023-04-06T01:12:39.697Z,4.80
2023-04-06T01:15:13.379Z,4.97
2023-04-06T01:17:43.114Z,4.90
2023-04-06T01:20:14.707Z,4.80
2023-04-06T01:22:41.896Z,4.25
2023-04-06T01:25:09.617Z,4.97
2023-04-06T01:27:56.668Z,5.07
2023-04-06T01:30:44.046Z,5.55
2023-04-06T01:33:24.182Z,5.50
2023-04-06T01:36:01.409Z,4.88
2023-04-06T01:38:28.902Z,5.57
2023-04-06T01:40:56.393Z,5.75
2023-04-06T01:43:25.565Z,4.97
2023-04-06T01:46:07.753Z,4.55
2023-04-06T01:48:37.565Z,7.15
2023-04-06T01:51:14.967Z,4.97
2023-04-06T01:53:53.253Z,4.63
2023-04-06T01:56:23.659Z,4.93
2023-04-06T01:59:14.115Z,5.38
2023-04-06T02:04:10.433Z,4.38
2023-04-06T02:06:38.308Z,4.97
2023-04-06T02:09:08.091Z,5.25
2023-04-06T02:11:35.237Z,4.97
2023-04-06T02:14:01.981Z,5.03
2023-04-06T02:16:32.335Z,4.88
2023-04-06T02:18:59.358Z,4.57
2023-04-06T02:21:26.459Z,5.00
2023-04-06T02:23:53.300Z,4.50
2023-04-06T02:26:21.049Z,5.45
2023-04-06T02:28:47.917Z,5.25
2023-04-06T02:31:16.597Z,5.03
2023-04-06T02:33:45.296Z,5.18
2023-04-06T02:36:13.991Z,5.70
2023-04-06T02:38:40.955Z,4.70
2023-04-06T02:41:07.979Z,4.93
2023-04-06T02:43:34.908Z,5.80
2023-04-06T02:46:10.425Z,4.90
2023-04-06T02:48:39.411Z,5.00
2023-04-06T02:51:06.927Z,5.32
2023-04-06T02:53:33.878Z,5.85
2023-04-06T02:56:01.345Z,5.20
2023-04-06T02:58:42.523Z,5.95
2023-04-06T03:01:09.360Z,5.72
2023-04-06T03:03:37.782Z,5.95
2023-04-06T03:06:09.558Z,5.15
2023-04-06T03:08:36.746Z,6.00
2023-04-06T03:11:03.494Z,5.22
2023-04-06T03:13:39.385Z,5.50
2023-04-06T03:16:07.171Z,6.28
2023-04-06T03:18:35.169Z,5.90
2023-04-06T03:21:02.071Z,5.97
2023-04-06T03:23:37.539Z,6.07
2023-04-06T03:26:05.012Z,5.45
2023-04-06T03:28:32.304Z,5.47
2023-04-06T03:31:03.778Z,5.27
2023-04-06T03:33:49.322Z,5.70
2023-04-06T03:36:29.088Z,5.45
2023-04-06T03:38:57.638Z,6.30
2023-04-06T03:41:42.761Z,5.85
2023-04-06T03:44:29.639Z,6.00
2023-04-06T03:46:56.618Z,5.82
2023-04-06T03:49:24.173Z,6.80
2023-04-06T03:51:54.053Z,5.53
2023-04-06T03:54:20.927Z,6.40
2023-04-06T03:56:47.738Z,6.05
2023-04-06T03:59:14.577Z,6.53
2023-04-06T04:01:41.452Z,6.07
2023-04-06T04:04:08.199Z,6.68
2023-04-06T04:06:35.101Z,6.38
2023-04-06T04:09:02.044Z,5.68
2023-04-06T04:11:28.872Z,5.65
2023-04-06T04:13:58.509Z,6.15
2023-04-06T04:16:25.295Z,6.25
2023-04-06T04:18:52.350Z,6.85
2023-04-06T04:21:19.102Z,6.60
2023-04-06T04:23:45.877Z,6.18
2023-04-06T04:26:12.829Z,6.82
2023-04-06T04:28:40.775Z,6.50
2023-04-06T04:31:07.523Z,6.22
2023-04-06T04:33:35.712Z,6.78
2023-04-06T04:36:07.286Z,6.63
2023-04-06T04:38:40.320Z,6.75
2023-04-06T04:41:10.312Z,8.07
2023-04-06T04:43:39.828Z,6.30
2023-04-06T04:46:07.833Z,7.60
2023-04-06T04:48:40.240Z,7.05
2023-04-06T04:51:07.565Z,7.05
2023-04-06T04:53:51.690Z,7.30
2023-04-06T04:56:25.697Z,6.05
2023-04-06T05:01:26.687Z,6.68
2023-04-06T05:03:55.598Z,6.35
2023-04-06T05:06:22.579Z,7.68
2023-04-06T05:08:49.400Z,6.53
2023-04-06T05:11:16.772Z,6.82
2023-04-06T05:13:48.532Z,7.55
2023-04-06T05:16:19.950Z,7.47
2023-04-06T05:18:48.591Z,6.85
2023-04-06T05:21:16.005Z,7.05
2023-04-06T05:24:16.293Z,7.38
2023-04-06T05:26:45.965Z,7.20
2023-04-06T05:29:21.086Z,6.88
2023-04-06T05:31:48.386Z,7.43
2023-04-06T05:34:18.386Z,6.43
2023-04-06T05:36:46.193Z,7.28
2023-04-06T05:41:50.679Z,7.68
2023-04-06T05:44:26.579Z,7.70
2023-04-06T05:47:02.975Z,7.03
2023-04-06T05:49:29.966Z,7.05
2023-04-06T05:51:56.818Z,7.22
2023-04-06T05:54:24.209Z,7.22
2023-04-06T05:56:56.781Z,6.72
2023-04-06T05:59:24.874Z,6.88
2023-04-06T06:01:52.071Z,7.28
2023-04-06T06:04:20.581Z,7.75
2023-04-06T06:06:52.244Z,8.00
2023-04-06T06:09:24.540Z,7.22
2023-04-06T06:12:03.789Z,7.97
2023-04-06T06:14:30.937Z,8.00
2023-04-06T06:16:58.116Z,8.32
2023-04-06T06:19:26.423Z,7.47
2023-04-06T06:21:57.771Z,8.00
2023-04-06T06:24:24.844Z,8.10
2023-04-06T06:26:52.128Z,7.85
2023-04-06T06:29:21.086Z,8.27
2023-04-06T06:31:48.130Z,6.90
2023-04-06T06:34:15.338Z,8.13
2023-04-06T06:36:45.267Z,8.23
2023-04-06T06:39:13.899Z,7.75
2023-04-06T06:41:41.518Z,7.78
2023-04-06T06:44:09.060Z,7.78
2023-04-06T06:46:35.930Z,8.20
2023-04-06T06:49:04.012Z,8.35
2023-04-06T06:51:31.426Z,7.85
2023-04-06T06:53:58.719Z,8.23
2023-04-06T06:56:27.765Z,7.80
2023-04-06T06:58:55.073Z,8.85
2023-04-06T07:01:22.018Z,9.32
2023-04-06T07:03:48.982Z,8.93
2023-04-06T07:06:16.038Z,8.13
2023-04-06T07:08:42.994Z,9.65
2023-04-06T07:11:10.043Z,9.02
2023-04-06T07:13:36.862Z,9.15
2023-04-06T07:16:03.934Z,8.05
2023-04-06T07:18:36.050Z,8.60
2023-04-06T07:21:03.419Z,8.40
2023-04-06T07:23:30.333Z,9.00
2023-04-06T07:25:57.193Z,9.45
2023-04-06T07:28:24.144Z,9.23
2023-04-06T07:30:51.376Z,9.27
2023-04-06T07:33:18.177Z,9.40
2023-04-06T07:35:45.314Z,8.98
2023-04-06T07:38:12.570Z,9.45
2023-04-06T07:40:40.878Z,9.13
2023-04-06T07:43:07.652Z,10.02
2023-04-06T07:45:34.495Z,9.88
2023-04-06T07:48:02.583Z,10.60
2023-04-06T07:50:30.147Z,9.77
2023-04-06T07:52:58.696Z,10.07
2023-04-06T07:55:26.287Z,9.93
2023-04-06T07:57:53.144Z,10.25
2023-04-06T08:00:21.015Z,10.80
2023-04-06T08:02:49.680Z,9.98
2023-04-06T08:05:16.939Z,10.75
2023-04-06T08:07:46.932Z,10.32
2023-04-06T08:10:14.030Z,9.23
2023-04-06T08:12:43.643Z,9.35
2023-04-06T08:15:10.916Z,10.15
2023-04-06T08:17:37.805Z,9.80
2023-04-06T08:20:04.937Z,9.88
2023-04-06T08:22:31.785Z,9.85
2023-04-06T08:24:58.859Z,10.07
2023-04-06T08:27:25.612Z,10.05
2023-04-06T08:29:52.458Z,11.05
2023-04-06T08:32:19.492Z,10.20
2023-04-06T08:34:47.238Z,10.32
2023-04-06T08:37:14.218Z,10.18
2023-04-06T08:39:41.352Z,10.60
2023-04-06T08:42:18.533Z,8.68
2023-04-06T08:44:46.788Z,9.93
2023-04-06T08:47:14.034Z,10.32
2023-04-06T08:49:41.434Z,10.45
2023-04-06T08:52:09.019Z,10.63
2023-04-06T08:54:35.966Z,10.35
2023-04-06T08:57:03.654Z,10.30
2023-04-06T08:59:31.279Z,10.15
2023-04-06T09:01:58.674Z,10.82
2023-04-06T09:04:27.246Z,9.55
2023-04-06T09:06:54.406Z,10.52
2023-04-06T09:09:24.123Z,9.63
2023-04-06T09:11:52.792Z,9.88
2023-04-06T09:14:38.396Z,9.65
2023-04-06T09:17:06.049Z,10.43
2023-04-06T09:19:33.147Z,10.07
2023-04-06T09:22:10.276Z,10.52
2023-04-06T09:24:48.489Z,11.82
2023-04-06T09:27:16.178Z,11.10
2023-04-06T09:29:44.028Z,11.18
2023-04-06T09:32:14.568Z,11.40
2023-04-06T09:34:41.368Z,10.77
2023-04-06T09:37:19.084Z,11.77
2023-04-06T09:39:47.547Z,12.57
2023-04-06T09:42:27.102Z,11.27
2023-04-06T09:44:53.949Z,12.65
2023-04-06T09:47:21.654Z,12.15
2023-04-06T09:49:51.713Z,13.10
2023-04-06T09:52:20.466Z,11.82
2023-04-06T09:54:50.924Z,13.00
2023-04-06T09:57:48.120Z,12.77
2023-04-06T10:00:20.120Z,13.20
2023-04-06T10:02:47.519Z,13.82
2023-04-06T10:05:37.172Z,14.15
2023-04-06T10:08:09.575Z,13.60
2023-04-06T10:10:36.610Z,14.30
2023-04-06T10:13:04.752Z,14.43
2023-04-06T10:15:32.082Z,14.48
2023-04-06T10:18:00.554Z,14.65
2023-04-06T10:20:37.029Z,14.82
2023-04-06T10:23:16.856Z,14.88
2023-04-06T10:25:57.427Z,14.45
2023-04-06T10:28:25.925Z,14.55
2023-04-06T10:31:00.538Z,14.50
2023-04-06T10:33:28.180Z,14.40
2023-04-06T10:35:56.628Z,14.55
2023-04-06T10:38:35.013Z,14.68
2023-04-06T10:41:17.966Z,15.02
2023-04-06T10:43:45.875Z,14.88
2023-04-06T10:46:14.663Z,15.15
2023-04-06T10:48:47.385Z,16.15
2023-04-06T10:51:16.166Z,14.80
2023-04-06T10:53:53.279Z,15.40
2023-04-06T10:56:23.749Z,15.70
2023-04-06T10:58:54.544Z,15.95
2023-04-06T11:01:23.043Z,14.93
2023-04-06T11:03:52.221Z,15.85
2023-04-06T11:06:23.909Z,16.70
2023-04-06T11:08:51.663Z,16.00
2023-04-06T11:11:21.638Z,15.43
2023-04-06T11:13:54.077Z,16.30
2023-04-06T11:16:26.242Z,16.20
2023-04-06T11:18:57.103Z,15.80
2023-04-06T11:21:37.789Z,15.57
2023-04-06T11:24:09.712Z,15.77
2023-04-06T11:26:54.924Z,16.90
2023-04-06T11:29:24.246Z,17.67
2023-04-06T11:31:53.252Z,16.92
2023-04-06T11:34:21.827Z,17.38
2023-04-06T11:36:54.808Z,15.88
2023-04-06T11:39:24.712Z,17.30
2023-04-06T11:41:58.214Z,16.42
2023-04-06T11:44:37.292Z,16.75
2023-04-06T11:47:06.313Z,15.25
2023-04-06T11:49:34.985Z,16.38
2023-04-06T11:52:02.060Z,16.38
2023-04-06T11:54:41.143Z,16.67
2023-04-06T11:57:09.492Z,16.90
2023-04-06T11:59:36.584Z,15.85
2023-04-06T12:02:04.558Z,17.30
2023-04-06T12:04:31.881Z,16.00
2023-04-06T12:06:59.258Z,16.92
2023-04-06T12:09:26.187Z,17.33
2023-04-06T12:11:53.039Z,16.02
2023-04-06T12:14:19.994Z,16.77
2023-04-06T12:16:46.940Z,17.20
2023-04-06T12:19:13.741Z,17.08
2023-04-06T12:21:41.584Z,17.23
2023-04-06T12:24:09.341Z,17.98
2023-04-06T12:26:36.865Z,17.45
2023-04-06T12:29:14.128Z,17.17
2023-04-06T12:31:41.902Z,18.52
2023-04-06T12:34:08.796Z,17.77
2023-04-06T12:36:35.591Z,16.35
2023-04-06T12:39:03.648Z,18.02
2023-04-06T12:41:30.740Z,16.35
2023-04-06T12:43:57.566Z,16.98
2023-04-06T12:46:27.915Z,16.45
2023-04-06T12:48:55.993Z,16.30
2023-04-06T12:51:23.133Z,16.45
2023-04-06T12:53:49.927Z,15.82
2023-04-06T12:56:18.593Z,16.58
2023-04-06T12:58:46.533Z,16.83
2023-04-06T13:01:14.410Z,16.10
2023-04-06T13:03:41.917Z,17.50
2023-04-06T13:06:09.507Z,17.75
2023-04-06T13:08:38.180Z,16.85
2023-04-06T13:11:06.007Z,17.80
2023-04-06T13:13:32.823Z,16.77
2023-04-06T13:16:05.776Z,18.00
2023-04-06T13:18:33.437Z,17.33
2023-04-06T13:21:00.851Z,17.70
2023-04-06T13:23:27.975Z,17.02
2023-04-06T13:26:06.336Z,18.02
2023-04-06T13:28:34.931Z,18.23
2023-04-06T13:31:02.878Z,15.27
2023-04-06T13:33:30.919Z,17.00
2023-04-06T13:35:58.774Z,17.65
2023-04-06T13:38:25.789Z,17.10
2023-04-06T13:40:53.023Z,16.25
2023-04-06T13:43:21.246Z,15.95
2023-04-06T13:45:52.923Z,16.17
2023-04-06T13:48:19.918Z,15.37
2023-04-06T13:50:47.014Z,15.75
2023-04-06T13:53:14.212Z,15.20
2023-04-06T13:55:41.178Z,15.80
2023-04-06T13:58:07.901Z,15.35
2023-04-06T14:00:34.901Z,16.98
2023-04-06T14:03:01.754Z,15.27
2023-04-06T14:05:35.454Z,15.30
2023-04-06T14:08:02.679Z,15.82
2023-04-06T14:10:29.431Z,17.02
2023-04-06T14:12:56.981Z,16.08
2023-04-06T14:15:24.852Z,15.82
2023-04-06T14:17:52.615Z,17.88
2023-04-06T14:20:19.786Z,16.30
2023-04-06T14:22:47.321Z,15.57
2023-04-06T14:25:14.015Z,14.88
2023-04-06T14:27:40.983Z,14.45
2023-04-06T14:30:08.459Z,13.93
2023-04-06T14:32:35.574Z,14.98
2023-04-06T14:35:02.609Z,14.27
2023-04-06T14:37:29.502Z,14.77
2023-04-06T14:39:56.280Z,15.10
2023-04-06T14:42:24.282Z,14.48
2023-04-06T14:44:51.468Z,13.63
2023-04-06T14:47:21.315Z,14.02
2023-04-06T14:49:51.187Z,13.30
2023-04-06T14:52:18.251Z,13.45
2023-04-06T14:54:45.205Z,12.20
2023-04-06T14:57:12.038Z,12.52
2023-04-06T14:59:40.169Z,10.82
2023-04-06T15:02:08.035Z,11.38
2023-04-06T15:04:38.095Z,11.57
2023-04-06T15:07:05.007Z,11.35
2023-04-06T15:09:32.092Z,11.52
2023-04-06T15:11:58.757Z,10.85
2023-04-06T15:14:25.972Z,10.27
2023-04-06T15:16:53.012Z,10.80
2023-04-06T15:19:19.943Z,9.48
2023-04-06T15:21:46.647Z,10.57
2023-04-06T15:24:13.306Z,10.48
2023-04-06T15:26:40.349Z,9.57
2023-04-06T15:29:07.147Z,11.48
2023-04-06T15:31:38.156Z,10.82
2023-04-06T15:34:09.144Z,10.82
2023-04-06T15:36:39.594Z,11.30
2023-04-06T15:39:09.670Z,11.60
2023-04-06T15:41:37.320Z,12.23
2023-04-06T15:44:07.296Z,11.77
2023-04-06T15:46:34.839Z,12.38
2023-04-06T15:49:01.536Z,12.40
2023-04-06T15:51:29.073Z,11.63
2023-04-06T15:53:55.816Z,12.00
2023-04-06T15:56:22.495Z,10.70
2023-04-06T15:58:49.327Z,12.38
2023-04-06T16:01:21.149Z,13.02
2023-04-06T16:03:48.151Z,12.67
2023-04-06T16:06:15.332Z,12.10
2023-04-06T16:08:42.233Z,13.32
2023-04-06T16:11:10.166Z,13.57
2023-04-06T16:13:37.125Z,13.23
2023-04-06T16:16:05.265Z,14.20
2023-04-06T16:18:34.117Z,13.25
2023-04-06T16:21:02.652Z,14.30
2023-04-06T16:23:29.655Z,13.75
2023-04-06T16:26:00.731Z,13.88
2023-04-06T16:28:27.524Z,14.75
2023-04-06T16:30:54.455Z,13.60
2023-04-06T16:33:23.809Z,14.65
2023-04-06T16:35:50.884Z,14.07
2023-04-06T16:38:17.751Z,13.18
2023-04-06T16:40:44.609Z,13.57
2023-04-06T16:43:11.536Z,14.10
2023-04-06T16:45:38.708Z,13.73
2023-04-06T16:48:06.163Z,13.75
2023-04-06T16:50:33.379Z,13.65
2023-04-06T16:53:00.245Z,14.60
2023-04-06T16:55:27.140Z,14.02
2023-04-06T16:57:57.117Z,14.07
2023-04-06T17:00:24.054Z,13.70
2023-04-06T17:02:51.324Z,15.02
2023-04-06T17:05:24.506Z,15.00
2023-04-06T17:07:51.511Z,14.75
2023-04-06T17:10:28.687Z,15.13
2023-04-06T17:15:29.802Z,13.48
2023-04-06T17:17:56.680Z,14.82
2023-04-06T17:20:26.479Z,14.48
2023-04-06T17:22:53.347Z,14.85
2023-04-06T17:25:20.470Z,14.90
2023-04-06T17:27:47.793Z,13.82
2023-04-06T17:30:18.266Z,15.38
2023-04-06T17:32:45.966Z,14.02
2023-04-06T17:35:12.736Z,13.45
2023-04-06T17:37:40.728Z,15.13
2023-04-06T17:40:07.999Z,15.82
2023-04-06T17:42:34.895Z,16.05
2023-04-06T17:45:01.640Z,14.35
2023-04-06T17:47:32.438Z,14.52
2023-04-06T17:50:00.871Z,14.93
2023-04-06T17:52:29.150Z,15.27
2023-04-06T17:54:56.578Z,14.57
2023-04-06T17:57:23.668Z,15.82
2023-04-06T17:59:50.490Z,15.57
2023-04-06T18:02:17.707Z,15.52
2023-04-06T18:04:44.580Z,14.40
2023-04-06T18:07:11.769Z,15.27
2023-04-06T18:09:39.848Z,14.85
2023-04-06T18:12:06.994Z,14.20
2023-04-06T18:14:33.709Z,15.25
2023-04-06T18:17:00.368Z,15.68
2023-04-06T18:19:28.810Z,14.68
2023-04-06T18:21:56.196Z,16.17
2023-04-06T18:24:40.503Z,15.15
2023-04-06T18:27:08.870Z,15.65
2023-04-06T18:29:36.748Z,16.60
2023-04-06T18:32:03.569Z,16.02
2023-04-06T18:34:30.301Z,15.57
2023-04-06T18:36:57.373Z,15.88
2023-04-06T18:39:24.130Z,16.33
2023-04-06T18:41:51.106Z,16.33
2023-04-06T18:44:17.824Z,16.38
2023-04-06T18:46:46.029Z,16.02
2023-04-06T18:49:12.881Z,16.65
2023-04-06T18:51:41.570Z,17.52
2023-04-06T18:54:08.813Z,17.52
2023-04-06T18:56:37.363Z,18.63
2023-04-06T18:59:04.136Z,17.52
2023-04-06T19:01:32.429Z,17.88
2023-04-06T19:03:59.951Z,16.67
2023-04-06T19:06:28.129Z,18.58
2023-04-06T19:08:55.539Z,18.27
2023-04-06T19:11:25.358Z,17.63
2023-04-06T19:13:54.039Z,18.60
2023-04-06T19:16:21.041Z,18.27
2023-04-06T19:18:47.928Z,18.40
2023-04-06T19:21:22.796Z,18.15
2023-04-06T19:23:51.930Z,17.23
2023-04-06T19:26:20.071Z,17.40
2023-04-06T19:28:46.883Z,18.20
2023-04-06T19:31:16.399Z,18.52
2023-04-06T19:33:44.980Z,18.85
2023-04-06T19:36:12.255Z,18.27
2023-04-06T19:38:39.636Z,18.13
2023-04-06T19:41:06.393Z,18.23
2023-04-06T19:43:33.417Z,18.00
2023-04-06T19:46:00.396Z,17.25
2023-04-06T19:48:27.357Z,17.08
2023-04-06T19:50:54.773Z,15.20
2023-04-06T19:53:24.678Z,15.25
2023-04-06T19:55:52.837Z,17.05
2023-04-06T19:58:21.419Z,15.95
2023-04-06T20:00:48.179Z,15.05
2023-04-06T20:03:15.719Z,16.20
2023-04-06T20:05:42.812Z,17.05
2023-04-06T20:08:09.637Z,16.05
2023-04-06T20:10:36.549Z,17.25
2023-04-06T20:13:03.493Z,19.55
2023-04-06T20:15:30.786Z,17.77
2023-04-06T20:17:57.525Z,19.05
2023-04-06T20:20:24.299Z,17.83
2023-04-06T20:22:51.244Z,18.38
2023-04-06T20:25:18.901Z,17.55
2023-04-06T20:27:46.033Z,16.40
2023-04-06T20:30:15.059Z,16.67
2023-04-06T20:32:42.002Z,14.40
2023-04-06T20:35:09.305Z,13.93
2023-04-06T20:37:39.076Z,12.55
2023-04-06T20:40:06.507Z,11.48
2023-04-06T20:42:34.162Z,10.98
2023-04-06T20:45:02.419Z,9.05
2023-04-06T20:47:29.369Z,9.25
2023-04-06T20:49:56.268Z,8.38
2023-04-06T20:52:23.221Z,7.93
2023-04-06T20:54:51.099Z,8.18
2023-04-06T20:57:18.257Z,8.00
2023-04-06T20:59:47.868Z,8.07
2023-04-06T21:02:14.683Z,8.38
2023-04-06T21:04:43.222Z,8.95
2023-04-06T21:07:10.907Z,9.43
2023-04-06T21:09:39.791Z,8.75
2023-04-06T21:12:07.265Z,9.57
2023-04-06T21:14:34.077Z,9.98
2023-04-06T21:17:00.860Z,10.07
2023-04-06T21:19:27.962Z,9.90
2023-04-06T21:21:54.864Z,10.80
2023-04-06T21:24:21.617Z,9.80
2023-04-06T21:26:48.270Z,11.60
2023-04-06T21:29:15.054Z,11.52
2023-04-06T21:31:42.440Z,11.52
2023-04-06T21:34:10.923Z,12.13
2023-04-06T21:36:38.397Z,11.65
2023-04-06T21:39:06.007Z,11.35
2023-04-06T21:41:46.919Z,13.07
2023-04-06T21:44:13.612Z,12.48
2023-04-06T21:46:40.395Z,13.50
2023-04-06T21:49:07.070Z,12.65
2023-04-06T21:51:34.115Z,13.05
2023-04-06T21:54:02.064Z,13.15
2023-04-06T21:56:28.777Z,13.25
2023-04-06T21:58:55.616Z,13.35
2023-04-06T22:01:22.392Z,13.65
2023-04-06T22:03:49.380Z,13.48
2023-04-06T22:06:16.443Z,13.45
2023-04-06T22:08:45.919Z,14.02
2023-04-06T22:11:12.587Z,13.90
2023-04-06T22:13:40.869Z,14.23
2023-04-06T22:16:07.936Z,14.23
2023-04-06T22:18:38.119Z,13.10
2023-04-06T22:21:06.026Z,15.57
2023-04-06T22:23:33.169Z,13.80
2023-04-06T22:26:00.153Z,14.45
2023-04-06T22:28:27.284Z,13.80
2023-04-06T22:30:54.014Z,15.00
2023-04-06T22:33:20.873Z,14.73
2023-04-06T22:35:47.608Z,14.32
2023-04-06T22:38:14.393Z,13.55
2023-04-06T22:40:41.124Z,15.18
2023-04-06T22:43:08.064Z,15.18
2023-04-06T22:45:34.815Z,14.60
2023-04-06T22:48:01.841Z,15.30
2023-04-06T22:50:28.647Z,15.52
2023-04-06T22:52:55.478Z,16.55
2023-04-06T22:55:22.350Z,15.25
2023-04-06T22:57:49.101Z,15.48
2023-04-06T23:00:18.858Z,15.57
2023-04-06T23:02:45.970Z,14.65
2023-04-06T23:05:12.826Z,15.82
2023-04-06T23:07:39.585Z,15.60
2023-04-06T23:10:07.631Z,15.52
2023-04-06T23:12:34.812Z,15.02
2023-04-06T23:15:01.627Z,15.35
2023-04-06T23:17:28.291Z,15.82
2023-04-06T23:19:55.027Z,14.90
2023-04-06T23:22:21.743Z,16.45
2023-04-06T23:24:49.737Z,15.40
2023-04-06T23:27:16.517Z,15.70
2023-04-06T23:29:43.455Z,15.07
2023-04-06T23:32:10.372Z,14.88
2023-04-06T23:34:37.605Z,16.40
2023-04-06T23:37:04.575Z,16.73
2023-04-06T23:39:31.626Z,15.45
2023-04-06T23:41:58.343Z,15.90
2023-04-06T23:44:28.670Z,15.57
2023-04-06T23:46:55.454Z,15.32
2023-04-06T23:49:22.163Z,15.40
2023-04-06T23:51:48.859Z,15.90
2023-04-06T23:54:15.531Z,15.02
2023-04-06T23:56:42.275Z,16.58
2023-04-06T23:59:09.021Z,16.50
